LFRG/DOL METAR and TAF weather

Enter ICAO airport designator
Station Type Date Time Source
LFRG METAR 2020/04/06 10:00 UTC NOAA

LFRG 061000Z AUTO 25008KT 9999 OVC018 13/09 Q1019


Station Type Date Time Source
LFRG Decoded METAR 2020/04/06 10:00 UTC NOAA

Station name not available
Apr 06, 2020 - 06:00 AM EDT / 2020.04.06 1000 UTC
Wind: from the WSW (250 degrees) at 9 MPH (8 KT):0
Visibility: greater than 7 mile(s):0
Sky conditions: overcast
Temperature: 55 F (13 C)
Dew Point: 48 F (9 C)
Relative Humidity: 76%
Pressure (altimeter): 30.09 in. Hg (1019 hPa)
ob: LFRG 061000Z AUTO 25008KT 9999 OVC018 13/09 Q1019
cycle: 10

Station Type Date Time Source
LFRG TAF 2014/12/22 18:42 UTC NOAA

TAF
AMD TAF
AMD LFRG 221837Z 2218/2221 25015KT 9999 OVC015
TEMPO 2218/2221 BKN007 PROB30
TEMPO 2218/2221 25015G25KT 4000 DZ BKN003

Example: see airport list